Time;durP1;ratioP1;P1;durP2;ratioP2;P2;SDS_P1;SDS_P2;PMS_P1;PMS_P2;Temp;Humidity;BMP_temperature;BMP_pressure;BME280_temperature;BME280_humidity;BME280_pressure;Samples;Min_cycle;Max_cycle;Signal;HPM_P1;HPM_P2
2022/10/26 00:00:49;;;;;;;10.80;3.55;;;10.80;99.90;;;;;;4977498;28;20066;-36
2022/10/26 00:03:15;;;;;;;7.85;4.07;;;10.80;99.90;;;;;;4984539;28;20069;-37
2022/10/26 00:05:42;;;;;;;9.00;3.65;;;10.80;99.90;;;;;;4983593;28;20045;-37
2022/10/26 00:08:08;;;;;;;8.52;3.75;;;10.80;99.90;;;;;;4983367;28;20111;-37
2022/10/26 00:10:35;;;;;;;8.65;4.53;;;10.80;99.90;;;;;;4988073;28;20077;-38
2022/10/26 00:13:02;;;;;;;10.75;4.35;;;10.80;99.90;;;;;;4980088;28;20050;-37
2022/10/26 00:15:28;;;;;;;9.05;4.00;;;10.70;99.90;;;;;;4986812;28;20046;-37
2022/10/26 00:17:54;;;;;;;7.95;2.92;;;10.70;99.90;;;;;;4987841;28;20046;-36
2022/10/26 00:20:20;;;;;;;7.03;3.58;;;10.70;99.90;;;;;;4986978;28;20042;-37
2022/10/26 00:22:45;;;;;;;9.43;3.72;;;10.70;99.90;;;;;;4985302;28;20030;-38
2022/10/26 00:25:11;;;;;;;6.55;3.65;;;10.70;99.90;;;;;;4983515;28;20153;-37
2022/10/26 00:27:37;;;;;;;14.75;3.75;;;10.60;99.90;;;;;;4988954;28;20038;-37
2022/10/26 00:30:04;;;;;;;6.22;3.17;;;10.60;99.90;;;;;;4987402;28;20468;-37
2022/10/26 00:32:30;;;;;;;7.35;3.65;;;10.60;99.90;;;;;;4977612;28;20047;-37
2022/10/26 00:34:56;;;;;;;7.40;3.13;;;10.60;99.90;;;;;;4987950;28;20045;-45
2022/10/26 00:37:22;;;;;;;6.15;3.28;;;10.50;99.90;;;;;;4983991;28;20053;-36
2022/10/26 00:39:47;;;;;;;6.38;3.33;;;10.50;99.90;;;;;;4988728;28;20384;-38
2022/10/26 00:42:19;;;;;;;6.30;3.20;;;10.50;99.90;;;;;;4984880;28;20388;-37
2022/10/26 00:44:48;;;;;;;7.40;2.83;;;10.50;99.90;;;;;;4975473;28;20085;-37
2022/10/26 00:47:24;;;;;;;10.20;3.25;;;10.50;99.90;;;;;;4988610;28;20053;-37
2022/10/26 00:49:53;;;;;;;9.88;3.78;;;10.40;99.90;;;;;;4982669;28;20042;-37
2022/10/26 00:52:20;;;;;;;6.22;3.45;;;10.40;99.90;;;;;;4980287;28;20054;-37
2022/10/26 00:54:45;;;;;;;6.80;3.35;;;10.40;99.90;;;;;;4979335;28;20055;-37
2022/10/26 00:57:14;;;;;;;7.13;3.65;;;10.40;99.90;;;;;;4984796;28;20038;-37
2022/10/26 00:59:41;;;;;;;9.55;3.60;;;10.40;99.90;;;;;;4981428;28;20042;-37
2022/10/26 01:02:07;;;;;;;6.72;3.30;;;10.40;99.90;;;;;;4983207;28;20037;-37
2022/10/26 01:04:33;;;;;;;9.27;3.35;;;10.40;99.90;;;;;;4985933;28;20395;-37
2022/10/26 01:07:00;;;;;;;6.45;2.80;;;10.40;99.90;;;;;;4981485;28;20044;-36
2022/10/26 01:09:26;;;;;;;9.50;3.47;;;10.40;99.90;;;;;;4984973;28;20034;-37
2022/10/26 01:11:52;;;;;;;7.80;3.10;;;10.40;99.90;;;;;;4985281;28;20121;-38
2022/10/26 01:14:19;;;;;;;6.38;3.10;;;10.40;99.90;;;;;;4990326;28;20117;-36
2022/10/26 01:17:11;;;;;;;7.22;3.00;;;10.40;99.90;;;;;;4985626;28;20126;-36
2022/10/26 01:19:57;;;;;;;6.40;2.80;;;10.40;99.90;;;;;;4984189;28;20042;-37
2022/10/26 01:22:33;;;;;;;5.63;2.70;;;10.40;99.90;;;;;;4988567;28;20038;-38
2022/10/26 01:25:31;;;;;;;6.15;3.20;;;10.40;99.90;;;;;;4984521;28;20487;-37
2022/10/26 01:27:59;;;;;;;8.95;3.08;;;10.40;99.90;;;;;;4925957;28;20080;-36
2022/10/26 01:30:38;;;;;;;10.65;3.40;;;10.40;99.90;;;;;;4986083;28;20116;-37
2022/10/26 01:33:10;;;;;;;6.00;3.30;;;10.30;99.90;;;;;;4985515;28;20043;-37
2022/10/26 01:35:47;;;;;;;7.10;3.22;;;10.30;99.90;;;;;;4986686;28;20117;-37
2022/10/26 01:38:18;;;;;;;8.48;3.30;;;10.30;99.90;;;;;;4984707;28;20077;-36
2022/10/26 01:40:53;;;;;;;10.68;5.30;;;10.30;99.90;;;;;;4988737;28;20093;-38
2022/10/26 01:43:19;;;;;;;6.30;3.47;;;10.30;99.90;;;;;;4984549;28;20082;-37
2022/10/26 01:45:47;;;;;;;8.68;4.10;;;10.30;99.90;;;;;;4988874;28;20496;-36
2022/10/26 01:48:17;;;;;;;6.97;3.75;;;10.30;99.90;;;;;;4984318;28;20046;-37
2022/10/26 01:50:46;;;;;;;7.63;3.85;;;10.30;99.90;;;;;;4989995;28;20057;-36
2022/10/26 01:53:15;;;;;;;7.57;3.70;;;10.20;99.90;;;;;;4981333;28;20567;-36
2022/10/26 01:55:46;;;;;;;9.48;3.85;;;10.30;99.90;;;;;;4987817;28;20050;-44
2022/10/26 01:58:43;;;;;;;6.95;4.10;;;10.30;99.90;;;;;;4989218;28;20049;-37
2022/10/26 02:01:47;;;;;;;7.25;3.88;;;10.20;99.90;;;;;;4986852;28;20046;-37
2022/10/26 02:04:34;;;;;;;8.30;4.70;;;10.20;99.90;;;;;;4991716;28;20061;-37
2022/10/26 02:07:01;;;;;;;7.40;4.78;;;10.30;99.90;;;;;;4987407;28;20034;-37
2022/10/26 02:09:45;;;;;;;7.30;4.75;;;10.30;99.90;;;;;;4984861;28;20050;-37
2022/10/26 02:12:21;;;;;;;11.13;4.57;;;10.30;99.90;;;;;;4991450;28;20057;-37
2022/10/26 02:14:52;;;;;;;7.40;4.60;;;10.30;99.90;;;;;;4989275;28;20037;-37
2022/10/26 02:17:34;;;;;;;10.18;4.45;;;10.30;99.90;;;;;;4986036;28;20069;-37
2022/10/26 02:20:06;;;;;;;6.95;3.95;;;10.30;99.90;;;;;;4985239;28;20122;-36
2022/10/26 02:22:40;;;;;;;7.60;4.30;;;10.30;99.90;;;;;;4984831;28;20478;-37
2022/10/26 02:25:18;;;;;;;9.80;4.85;;;10.30;99.90;;;;;;4982713;28;20122;-37
2022/10/26 02:27:48;;;;;;;9.43;5.20;;;10.30;99.90;;;;;;4989884;28;20491;-37
2022/10/26 02:30:13;;;;;;;11.00;4.80;;;10.30;99.90;;;;;;4984099;28;20055;-37
2022/10/26 02:32:45;;;;;;;8.38;5.40;;;10.30;99.90;;;;;;4983833;28;20046;-37
2022/10/26 02:35:13;;;;;;;15.13;5.90;;;10.30;99.90;;;;;;4987218;28;20050;-37
2022/10/26 02:37:40;;;;;;;10.73;5.30;;;10.30;99.90;;;;;;4989289;28;20074;-37
2022/10/26 02:40:11;;;;;;;11.18;5.78;;;10.30;99.90;;;;;;4985562;28;20077;-37
2022/10/26 02:42:41;;;;;;;12.38;5.43;;;10.30;99.90;;;;;;4989282;28;20062;-37
2022/10/26 02:45:10;;;;;;;10.05;5.85;;;10.30;99.90;;;;;;4990460;28;20054;-36
2022/10/26 02:47:36;;;;;;;9.35;5.68;;;10.40;99.90;;;;;;4982091;28;20117;-36
2022/10/26 02:50:03;;;;;;;9.02;5.50;;;10.30;99.90;;;;;;4988268;28;20137;-37
2022/10/26 02:52:28;;;;;;;8.10;5.30;;;10.30;99.90;;;;;;4990267;28;20034;-37
2022/10/26 02:55:02;;;;;;;10.52;5.50;;;10.30;99.90;;;;;;4984868;28;20049;-37
2022/10/26 02:57:39;;;;;;;12.95;5.65;;;10.30;99.90;;;;;;4988221;28;20048;-37
2022/10/26 03:00:11;;;;;;;11.88;5.82;;;10.40;99.90;;;;;;4975095;28;20093;-37
2022/10/26 03:02:36;;;;;;;11.18;5.30;;;10.40;99.90;;;;;;4985919;28;20555;-37
2022/10/26 03:05:27;;;;;;;10.05;5.43;;;10.30;99.90;;;;;;4989899;28;20038;-36
2022/10/26 03:07:54;;;;;;;9.25;5.13;;;10.30;99.90;;;;;;4988691;28;20085;-38
2022/10/26 03:10:20;;;;;;;10.38;5.18;;;10.30;99.90;;;;;;4985990;28;20488;-37
2022/10/26 03:12:46;;;;;;;10.98;5.60;;;10.30;99.90;;;;;;4990322;28;20049;-37
2022/10/26 03:15:12;;;;;;;9.60;6.43;;;10.30;99.90;;;;;;4985091;28;20448;-37
2022/10/26 03:17:38;;;;;;;13.32;5.75;;;10.30;99.90;;;;;;4983718;28;20503;-37
2022/10/26 03:20:04;;;;;;;10.45;5.00;;;10.30;99.90;;;;;;4983507;28;20042;-36
2022/10/26 03:22:30;;;;;;;12.93;5.70;;;10.30;99.90;;;;;;4982817;28;20117;-36
2022/10/26 03:24:55;;;;;;;9.63;5.43;;;10.30;99.90;;;;;;4990066;28;20476;-37
2022/10/26 03:27:21;;;;;;;12.68;5.65;;;10.20;99.90;;;;;;4986731;28;20081;-37
2022/10/26 03:29:47;;;;;;;9.52;5.72;;;10.20;99.90;;;;;;4986771;28;20093;-36
2022/10/26 03:32:13;;;;;;;15.57;6.10;;;10.20;99.90;;;;;;4990076;28;20049;-37
2022/10/26 03:34:39;;;;;;;13.68;6.18;;;10.20;99.90;;;;;;4984784;28;20042;-48
2022/10/26 03:37:04;;;;;;;11.75;5.65;;;10.20;99.90;;;;;;4989007;28;20447;-37
2022/10/26 03:39:30;;;;;;;12.85;5.38;;;10.20;99.90;;;;;;4986330;28;20035;-37
2022/10/26 03:41:56;;;;;;;9.38;5.75;;;10.20;99.90;;;;;;4988106;28;20030;-37
2022/10/26 03:44:22;;;;;;;11.27;6.15;;;10.20;99.90;;;;;;4984280;28;20084;-36
2022/10/26 03:46:47;;;;;;;12.85;6.00;;;10.20;99.90;;;;;;4984277;28;20045;-37
2022/10/26 03:49:14;;;;;;;11.63;5.93;;;10.20;99.90;;;;;;4986331;28;20058;-38
2022/10/26 03:51:40;;;;;;;10.43;5.38;;;10.20;99.90;;;;;;4981268;28;20133;-36
2022/10/26 03:54:05;;;;;;;10.48;5.43;;;10.20;99.90;;;;;;4984986;28;20077;-37
2022/10/26 03:56:31;;;;;;;10.13;5.72;;;10.20;99.90;;;;;;4988428;28;20042;-36
2022/10/26 03:58:57;;;;;;;13.95;5.88;;;10.20;99.90;;;;;;4988061;28;20463;-37
2022/10/26 04:01:22;;;;;;;9.55;5.13;;;10.20;99.90;;;;;;4983950;28;20039;-36
2022/10/26 04:03:48;;;;;;;10.00;5.57;;;10.20;99.90;;;;;;4987186;28;20052;-38
2022/10/26 04:06:14;;;;;;;12.60;6.13;;;10.30;99.90;;;;;;4984250;28;20043;-37
2022/10/26 04:08:39;;;;;;;12.10;5.45;;;10.30;99.90;;;;;;4984666;28;20137;-37
2022/10/26 04:11:05;;;;;;;9.20;5.53;;;10.30;99.90;;;;;;4989356;28;20049;-37
2022/10/26 04:13:31;;;;;;;11.27;6.28;;;10.40;99.90;;;;;;4986903;28;20050;-37
2022/10/26 04:15:57;;;;;;;10.90;6.50;;;10.40;99.90;;;;;;4985207;28;20045;-36
2022/10/26 04:18:23;;;;;;;11.35;6.53;;;10.40;99.90;;;;;;4988966;28;20053;-40
2022/10/26 04:20:49;;;;;;;9.65;5.30;;;10.40;99.90;;;;;;4979456;28;20042;-37
2022/10/26 04:23:16;;;;;;;9.23;5.28;;;10.40;99.90;;;;;;4984726;28;20057;-37
2022/10/26 04:25:43;;;;;;;9.30;5.50;;;10.40;99.90;;;;;;4988345;28;20035;-37
2022/10/26 04:28:10;;;;;;;11.20;5.80;;;10.40;99.90;;;;;;4988203;28;20056;-37
2022/10/26 04:30:37;;;;;;;9.48;5.78;;;10.40;99.90;;;;;;4986357;28;20113;-37
2022/10/26 04:33:04;;;;;;;11.02;5.80;;;10.40;99.90;;;;;;4984569;28;20116;-37
2022/10/26 04:35:30;;;;;;;11.43;5.85;;;10.40;99.90;;;;;;4983381;28;20049;-37
2022/10/26 04:38:04;;;;;;;13.75;5.82;;;10.40;99.90;;;;;;4985709;28;20050;-36
2022/10/26 04:40:31;;;;;;;8.82;5.22;;;10.50;99.90;;;;;;4983596;28;20030;-37
2022/10/26 04:42:57;;;;;;;10.13;5.00;;;10.40;99.90;;;;;;4984887;28;20444;-37
2022/10/26 04:45:23;;;;;;;10.15;5.55;;;10.50;99.90;;;;;;4987042;28;20068;-37
2022/10/26 04:48:04;;;;;;;10.52;5.70;;;10.50;99.90;;;;;;4985560;28;20045;-37
2022/10/26 04:50:30;;;;;;;10.05;4.53;;;10.50;99.90;;;;;;4982902;28;20073;-37
2022/10/26 04:52:55;;;;;;;8.85;5.43;;;10.50;99.90;;;;;;4984327;28;20492;-37
2022/10/26 04:55:21;;;;;;;10.05;5.65;;;10.60;99.90;;;;;;4987152;28;20049;-47
2022/10/26 04:57:47;;;;;;;16.25;7.65;;;10.60;99.90;;;;;;4988783;28;20047;-37
2022/10/26 05:00:12;;;;;;;10.38;5.65;;;10.60;99.90;;;;;;4985912;28;20543;-37
2022/10/26 05:02:38;;;;;;;9.15;5.13;;;10.60;99.90;;;;;;4983505;28;20109;-37
2022/10/26 05:05:04;;;;;;;7.20;5.00;;;10.60;99.90;;;;;;4988371;28;20046;-37
2022/10/26 05:07:29;;;;;;;9.20;5.32;;;10.70;99.90;;;;;;4987749;28;20081;-37
2022/10/26 05:09:55;;;;;;;9.35;5.63;;;10.70;99.90;;;;;;4984957;28;20042;-37
2022/10/26 05:12:21;;;;;;;9.80;5.68;;;10.70;99.90;;;;;;4985621;28;20644;-37
2022/10/26 05:14:46;;;;;;;10.02;5.40;;;10.70;99.90;;;;;;4985544;28;20408;-38
2022/10/26 05:17:12;;;;;;;10.75;5.65;;;10.70;99.90;;;;;;4988099;28;20065;-37
2022/10/26 05:19:38;;;;;;;11.00;5.95;;;10.70;99.90;;;;;;4986951;28;20125;-37
2022/10/26 05:22:04;;;;;;;9.73;5.60;;;10.80;99.90;;;;;;4990774;28;20404;-37
2022/10/26 05:24:29;;;;;;;9.45;5.93;;;10.80;99.90;;;;;;4987948;28;20038;-38
2022/10/26 05:26:55;;;;;;;10.90;6.18;;;10.80;99.90;;;;;;4988793;28;20034;-39
2022/10/26 05:29:20;;;;;;;8.98;5.10;;;10.80;99.90;;;;;;4989906;28;20034;-36
2022/10/26 05:31:46;;;;;;;12.63;6.22;;;10.80;99.90;;;;;;4991768;28;20056;-37
2022/10/26 05:34:12;;;;;;;8.88;6.22;;;10.80;99.90;;;;;;4988423;28;20038;-37
2022/10/26 05:36:37;;;;;;;10.25;5.57;;;10.80;99.90;;;;;;4985537;28;20078;-38
2022/10/26 05:39:03;;;;;;;10.27;5.53;;;10.80;99.90;;;;;;4986957;28;20157;-37
2022/10/26 05:41:28;;;;;;;9.05;5.55;;;10.80;99.90;;;;;;4989602;28;20551;-38
2022/10/26 05:43:54;;;;;;;12.90;5.85;;;10.80;99.90;;;;;;4991899;28;20105;-37
2022/10/26 05:46:20;;;;;;;7.82;5.35;;;10.80;99.90;;;;;;4988621;28;20128;-37
2022/10/26 05:48:45;;;;;;;11.27;5.97;;;10.90;99.90;;;;;;4982335;28;20125;-37
2022/10/26 05:51:11;;;;;;;12.80;6.00;;;10.90;99.90;;;;;;4989373;28;20038;-37
2022/10/26 05:53:37;;;;;;;10.57;5.45;;;10.90;99.90;;;;;;4985027;28;20054;-37
2022/10/26 05:56:17;;;;;;;9.32;5.65;;;10.90;99.90;;;;;;4983596;28;20093;-37
2022/10/26 05:58:44;;;;;;;9.38;5.50;;;10.90;99.90;;;;;;4988047;28;20046;-36
2022/10/26 06:01:20;;;;;;;9.35;5.63;;;10.90;99.90;;;;;;4982649;28;20395;-37
2022/10/26 06:04:28;;;;;;;12.52;5.57;;;10.90;99.90;;;;;;4984803;28;20492;-37
2022/10/26 06:06:54;;;;;;;10.48;5.50;;;10.90;99.90;;;;;;4986479;28;20100;-37
2022/10/26 06:09:21;;;;;;;9.65;5.40;;;10.90;99.90;;;;;;4989255;28;20049;-37
2022/10/26 06:11:46;;;;;;;10.68;5.82;;;10.90;99.90;;;;;;4986824;28;20034;-36
2022/10/26 06:14:12;;;;;;;10.05;5.50;;;10.90;99.90;;;;;;4988545;28;20055;-37
2022/10/26 06:16:38;;;;;;;10.52;5.47;;;10.90;99.90;;;;;;4992433;28;20030;-37
2022/10/26 06:19:13;;;;;;;10.18;4.68;;;11.00;99.90;;;;;;4990441;28;20153;-37
2022/10/26 06:21:57;;;;;;;10.30;5.30;;;10.90;99.90;;;;;;4981600;28;20106;-37
2022/10/26 06:24:55;;;;;;;11.35;5.80;;;11.00;99.90;;;;;;4992361;28;20035;-37
2022/10/26 06:27:37;;;;;;;10.30;5.25;;;11.00;99.90;;;;;;4990801;28;20038;-37
2022/10/26 06:30:11;;;;;;;8.93;4.72;;;11.00;99.90;;;;;;4984661;28;20050;-37
2022/10/26 06:32:44;;;;;;;10.65;5.50;;;11.00;99.90;;;;;;4984336;28;20049;-37
2022/10/26 06:35:35;;;;;;;8.25;4.85;;;11.00;99.90;;;;;;4990051;28;20798;-37
2022/10/26 06:38:08;;;;;;;11.00;5.25;;;11.00;99.90;;;;;;4989195;28;20046;-37
2022/10/26 06:40:36;;;;;;;8.98;5.28;;;11.00;99.90;;;;;;4989631;28;20038;-37
2022/10/26 06:43:02;;;;;;;6.95;3.92;;;11.00;99.90;;;;;;4987829;28;20408;-37
2022/10/26 06:45:28;;;;;;;9.25;4.95;;;11.00;99.90;;;;;;4985445;28;20047;-37
2022/10/26 06:48:09;;;;;;;8.55;5.25;;;11.00;99.90;;;;;;4983164;28;20066;-37
2022/10/26 06:50:53;;;;;;;10.60;6.00;;;11.00;99.90;;;;;;4985212;28;20097;-37
2022/10/26 06:53:35;;;;;;;9.68;5.03;;;11.00;99.90;;;;;;4982108;28;20048;-38
2022/10/26 06:56:01;;;;;;;8.07;4.20;;;11.00;99.90;;;;;;4987399;28;20404;-37
2022/10/26 06:58:29;;;;;;;9.32;5.60;;;11.10;99.90;;;;;;4991282;28;20061;-37
2022/10/26 07:00:56;;;;;;;8.35;4.57;;;11.10;99.90;;;;;;4991257;28;20084;-37
2022/10/26 07:03:22;;;;;;;11.98;4.75;;;11.10;99.90;;;;;;4985304;28;20035;-37
2022/10/26 07:05:48;;;;;;;9.18;4.50;;;11.20;99.90;;;;;;4989193;28;20043;-37
2022/10/26 07:08:13;;;;;;;9.80;5.53;;;11.20;99.90;;;;;;4987176;28;20524;-39
2022/10/26 07:10:41;;;;;;;9.90;5.07;;;11.20;99.90;;;;;;4987466;28;20078;-37
2022/10/26 07:13:08;;;;;;;10.55;4.90;;;11.30;99.90;;;;;;4991737;28;20050;-37
2022/10/26 07:15:35;;;;;;;14.20;4.72;;;11.30;99.90;;;;;;4990591;28;20468;-37
2022/10/26 07:18:04;;;;;;;7.32;4.45;;;11.40;99.90;;;;;;4990917;28;20072;-38
2022/10/26 07:20:31;;;;;;;8.13;5.05;;;11.40;99.90;;;;;;4988672;28;20108;-37
2022/10/26 07:22:57;;;;;;;8.02;4.50;;;11.50;99.90;;;;;;4990571;28;20034;-37
2022/10/26 07:25:25;;;;;;;9.07;4.70;;;11.60;99.90;;;;;;4990829;28;20049;-37
2022/10/26 07:27:51;;;;;;;15.48;4.55;;;11.60;99.90;;;;;;4991327;28;20046;-37
2022/10/26 07:30:17;;;;;;;11.57;4.88;;;11.70;99.90;;;;;;4986481;28;20069;-37
2022/10/26 07:32:43;;;;;;;13.48;5.25;;;11.80;99.90;;;;;;4986532;28;20053;-37
2022/10/26 07:35:09;;;;;;;10.63;4.57;;;11.90;99.90;;;;;;4982560;28;20070;-37
2022/10/26 07:37:35;;;;;;;7.50;4.20;;;11.90;99.90;;;;;;4969772;28;20603;-37
2022/10/26 07:40:00;;;;;;;11.93;4.20;;;12.00;99.90;;;;;;4977161;28;20062;-37
2022/10/26 07:42:26;;;;;;;12.40;4.75;;;12.10;99.90;;;;;;4982746;28;20045;-37
2022/10/26 07:44:52;;;;;;;8.50;4.13;;;12.20;99.90;;;;;;4986953;28;20035;-37
2022/10/26 07:47:17;;;;;;;6.70;3.85;;;12.20;99.90;;;;;;4986781;28;20141;-38
2022/10/26 07:49:43;;;;;;;6.95;3.40;;;12.20;99.90;;;;;;4989835;28;20563;-37
2022/10/26 07:52:09;;;;;;;6.90;3.58;;;12.30;99.90;;;;;;4974758;28;20468;-38
2022/10/26 07:54:35;;;;;;;8.50;4.20;;;12.30;99.90;;;;;;4972370;28;20550;-36
2022/10/26 07:57:01;;;;;;;7.38;3.33;;;12.30;99.90;;;;;;4976420;28;20146;-38
2022/10/26 07:59:27;;;;;;;7.10;3.90;;;12.30;99.90;;;;;;4970693;28;20042;-38
2022/10/26 08:01:53;;;;;;;9.13;3.83;;;12.30;99.90;;;;;;4983754;28;20403;-37
2022/10/26 08:04:19;;;;;;;7.47;3.22;;;12.30;99.90;;;;;;4989664;28;20042;-36
2022/10/26 08:06:46;;;;;;;7.63;3.65;;;12.30;99.90;;;;;;4986787;28;20118;-38
2022/10/26 08:09:11;;;;;;;6.70;3.67;;;12.30;99.90;;;;;;4985082;28;20492;-38
2022/10/26 08:11:37;;;;;;;7.60;4.55;;;12.30;99.90;;;;;;4990711;28;20041;-37
2022/10/26 08:14:06;;;;;;;8.65;3.47;;;12.30;99.90;;;;;;4982829;28;20136;-37
2022/10/26 08:16:33;;;;;;;6.22;3.67;;;12.40;99.90;;;;;;4973727;28;20042;-37
2022/10/26 08:18:59;;;;;;;10.55;4.47;;;12.40;99.90;;;;;;4979112;28;20057;-37
2022/10/26 08:21:25;;;;;;;6.90;3.53;;;12.50;99.90;;;;;;4988700;28;20038;-37
2022/10/26 08:23:50;;;;;;;8.48;2.60;;;12.60;99.90;;;;;;4985145;28;20042;-39
2022/10/26 08:26:17;;;;;;;6.32;3.63;;;12.70;99.90;;;;;;4989065;28;20181;-37
2022/10/26 08:28:43;;;;;;;5.10;2.83;;;12.80;99.90;;;;;;4990424;28;20042;-37
2022/10/26 08:31:08;;;;;;;9.70;3.80;;;12.90;99.90;;;;;;4976621;28;20047;-39
2022/10/26 08:33:34;;;;;;;9.18;3.22;;;13.00;99.90;;;;;;4986086;28;20039;-37
2022/10/26 08:36:02;;;;;;;7.10;2.83;;;13.10;99.90;;;;;;4973059;28;20042;-37
2022/10/26 08:38:28;;;;;;;6.38;3.00;;;13.20;99.90;;;;;;4981236;28;20507;-37
2022/10/26 08:40:56;;;;;;;6.55;2.70;;;13.30;99.90;;;;;;4983930;28;20811;-38
2022/10/26 08:43:49;;;;;;;6.25;2.58;;;13.40;99.90;;;;;;4985487;28;20416;-37
2022/10/26 08:46:18;;;;;;;;;;;13.60;99.90;;;;;;4987457;28;20070;-37
2022/10/26 08:48:52;;;;;;;5.45;2.47;;;13.70;99.90;;;;;;4989435;28;19940;-37
2022/10/26 08:51:24;;;;;;;7.40;2.20;;;13.80;99.90;;;;;;4984694;28;20038;-37
2022/10/26 08:54:14;;;;;;;7.80;3.00;;;13.90;99.90;;;;;;4989018;28;20052;-37
2022/10/26 08:57:03;;;;;;;7.40;2.35;;;14.00;99.90;;;;;;4988678;28;20419;-38
2022/10/26 08:59:39;;;;;;;6.47;2.80;;;14.20;99.90;;;;;;4986981;28;20089;-37
2022/10/26 09:02:12;;;;;;;5.75;1.88;;;14.30;99.90;;;;;;4989504;28;20074;-38
2022/10/26 09:04:38;;;;;;;5.80;2.22;;;14.40;99.90;;;;;;4989249;28;20030;-38
2022/10/26 09:07:18;;;;;;;6.00;2.20;;;14.50;99.90;;;;;;4984383;28;20622;-39
2022/10/26 09:09:44;;;;;;;6.55;2.20;;;14.50;99.90;;;;;;4986121;28;20065;-37
2022/10/26 09:12:23;;;;;;;7.18;2.38;;;14.70;99.90;;;;;;4986504;28;20039;-38
2022/10/26 09:15:07;;;;;;;5.32;2.15;;;14.80;99.90;;;;;;4979416;28;20093;-38
2022/10/26 09:17:47;;;;;;;8.25;1.88;;;15.00;99.90;;;;;;4981315;28;20066;-38
2022/10/26 09:20:37;;;;;;;7.05;2.00;;;15.20;99.90;;;;;;4984383;28;20042;-38
2022/10/26 09:23:30;;;;;;;4.18;2.00;;;15.40;99.90;;;;;;4984922;28;20154;-38
2022/10/26 09:26:01;;;;;;;4.47;2.30;;;15.60;99.90;;;;;;4983724;28;20089;-38
2022/10/26 09:28:33;;;;;;;5.65;1.92;;;15.80;99.90;;;;;;4986077;28;20038;-38
2022/10/26 09:31:00;;;;;;;5.85;1.70;;;15.90;99.90;;;;;;4985819;28;20070;-38
2022/10/26 09:33:27;;;;;;;4.03;1.52;;;16.00;99.90;;;;;;4984326;28;20050;-40
2022/10/26 09:36:07;;;;;;;5.13;1.27;;;16.10;99.90;;;;;;4988751;28;20035;-38
2022/10/26 09:39:20;;;;;;;4.07;1.60;;;16.10;99.90;;;;;;4988882;28;20034;-36
2022/10/26 09:41:52;;;;;;;;;;;16.10;99.90;;;;;;4968923;28;20067;-36
2022/10/26 09:44:27;;;;;;;7.60;2.03;;;16.10;99.90;;;;;;4987775;28;19917;-36
2022/10/26 09:47:11;;;;;;;4.18;1.73;;;16.20;99.90;;;;;;4987281;28;20077;-36
2022/10/26 09:49:47;;;;;;;5.38;2.00;;;16.20;99.90;;;;;;4989023;28;20050;-44
2022/10/26 09:52:14;;;;;;;6.15;2.10;;;16.10;99.90;;;;;;4982388;28;20082;-38
2022/10/26 09:54:40;;;;;;;3.85;2.05;;;16.10;99.90;;;;;;4986443;28;20057;-37
2022/10/26 09:57:07;;;;;;;5.78;2.00;;;16.10;99.90;;;;;;4985393;28;20042;-37
2022/10/26 09:59:36;;;;;;;3.58;1.85;;;16.20;99.90;;;;;;4989847;28;20443;-37
2022/10/26 10:02:39;;;;;;;5.00;1.60;;;16.30;99.90;;;;;;4982563;28;20058;-37
2022/10/26 10:05:33;;;;;;;4.93;1.83;;;16.40;99.90;;;;;;4986158;28;20042;-40
2022/10/26 10:08:19;;;;;;;3.22;1.13;;;16.60;99.90;;;;;;4990082;28;20038;-37
2022/10/26 10:10:54;;;;;;;6.05;1.60;;;16.70;99.90;;;;;;4990039;28;20399;-37
2022/10/26 10:13:21;;;;;;;4.78;1.90;;;16.80;99.90;;;;;;4990618;28;20049;-38
2022/10/26 10:15:56;;;;;;;5.30;1.58;;;16.80;99.90;;;;;;4991630;28;20077;-38
2022/10/26 10:18:23;;;;;;;5.45;1.45;;;16.90;99.90;;;;;;4991920;28;20528;-38
2022/10/26 10:20:52;;;;;;;4.32;1.60;;;17.00;99.90;;;;;;4990623;28;20042;-37
2022/10/26 10:23:31;;;;;;;6.65;1.73;;;17.00;99.90;;;;;;4993089;28;20042;-37
2022/10/26 10:26:04;;;;;;;4.30;1.60;;;17.10;99.90;;;;;;4987695;28;20562;-37
2022/10/26 10:28:30;;;;;;;6.75;2.05;;;17.20;99.90;;;;;;4989875;28;20078;-37
2022/10/26 10:31:01;;;;;;;4.90;1.73;;;17.20;99.90;;;;;;4991540;28;20034;-37
2022/10/26 10:33:38;;;;;;;4.45;1.70;;;17.20;99.90;;;;;;4985682;28;20046;-37
2022/10/26 10:36:15;;;;;;;6.32;2.05;;;17.20;99.90;;;;;;4990890;28;20038;-37
2022/10/26 10:38:42;;;;;;;8.88;1.60;;;17.30;99.90;;;;;;4991221;28;20562;-37
2022/10/26 10:41:27;;;;;;;6.75;1.75;;;17.30;99.90;;;;;;4983906;28;20053;-37
2022/10/26 10:44:04;;;;;;;3.25;1.60;;;17.30;99.90;;;;;;4987721;28;20578;-37
2022/10/26 10:46:30;;;;;;;5.85;1.40;;;17.30;99.90;;;;;;4986042;28;20570;-37
2022/10/26 10:49:16;;;;;;;9.40;2.22;;;17.30;99.90;;;;;;4989550;28;20039;-37
2022/10/26 10:51:43;;;;;;;5.15;2.10;;;17.30;99.90;;;;;;4986961;28;20069;-38
2022/10/26 10:54:30;;;;;;;5.72;1.60;;;17.40;99.90;;;;;;4988793;28;20046;-38
2022/10/26 10:57:07;;;;;;;4.28;1.67;;;17.50;99.90;;;;;;4991562;28;20100;-37
2022/10/26 10:59:43;;;;;;;4.53;1.60;;;17.60;99.90;;;;;;4988328;28;20073;-39
2022/10/26 11:02:33;;;;;;;4.80;1.70;;;17.70;99.90;;;;;;4988640;28;20050;-37
2022/10/26 11:05:23;;;;;;;5.40;1.40;;;17.80;99.90;;;;;;4988857;28;20092;-37
2022/10/26 11:07:51;;;;;;;6.22;1.60;;;17.80;99.90;;;;;;4991679;28;20065;-37
2022/10/26 11:10:18;;;;;;;7.13;1.58;;;17.90;99.90;;;;;;4989317;28;20148;-37
2022/10/26 11:12:51;;;;;;;6.43;1.90;;;18.00;99.90;;;;;;4986677;28;20128;-37
2022/10/26 11:15:21;;;;;;;6.03;1.50;;;18.00;99.90;;;;;;4988215;28;20134;-37
2022/10/26 11:18:06;;;;;;;7.38;1.35;;;18.10;99.90;;;;;;4986666;28;20050;-37
2022/10/26 11:20:37;;;;;;;6.10;1.70;;;18.30;99.90;;;;;;4990175;28;20045;-37
2022/10/26 11:23:30;;;;;;;6.88;1.23;;;18.40;99.90;;;;;;4986396;28;20045;-38
2022/10/26 11:26:11;;;;;;;5.20;1.77;;;18.70;99.90;;;;;;4988079;28;20053;-37
2022/10/26 11:28:53;;;;;;;5.85;1.83;;;18.90;99.90;;;;;;4984942;28;20053;-40
2022/10/26 11:31:31;;;;;;;6.28;1.30;;;19.10;99.90;;;;;;4979234;28;20045;-37
2022/10/26 11:34:00;;;;;;;5.70;1.25;;;19.30;99.40;;;;;;4983084;28;20046;-37
2022/10/26 11:36:30;;;;;;;6.95;1.40;;;19.50;99.00;;;;;;4986339;28;20046;-38
2022/10/26 11:39:05;;;;;;;7.00;1.63;;;19.70;98.70;;;;;;4991670;28;20050;-37
2022/10/26 11:41:47;;;;;;;3.40;1.45;;;20.00;97.90;;;;;;4988929;28;20034;-38
2022/10/26 11:44:26;;;;;;;3.42;1.20;;;20.20;97.30;;;;;;4981884;28;20591;-45
2022/10/26 11:46:59;;;;;;;5.25;1.73;;;20.40;97.00;;;;;;4983874;28;20042;-39
2022/10/26 11:49:49;;;;;;;3.58;1.35;;;20.60;96.50;;;;;;4989741;28;20049;-38
2022/10/26 11:52:33;;;;;;;2.35;1.15;;;20.70;95.10;;;;;;4989085;28;20377;-38
2022/10/26 11:55:03;;;;;;;4.25;1.25;;;20.80;95.80;;;;;;4989026;28;20034;-38
2022/10/26 11:57:35;;;;;;;4.32;1.45;;;21.00;95.30;;;;;;4990399;28;20034;-38
2022/10/26 12:00:05;;;;;;;3.08;1.50;;;21.20;94.60;;;;;;4990629;28;20108;-38
2022/10/26 12:02:37;;;;;;;5.10;1.65;;;21.20;93.60;;;;;;4988015;28;20381;-39
2022/10/26 12:05:17;;;;;;;6.55;1.92;;;21.10;93.40;;;;;;4989427;28;20096;-39
2022/10/26 12:07:52;;;;;;;8.10;2.03;;;21.30;93.00;;;;;;4985978;28;20050;-37
2022/10/26 12:10:35;;;;;;;6.68;1.90;;;21.40;92.90;;;;;;4984344;28;20046;-47
2022/10/26 12:13:18;;;;;;;4.00;2.08;;;21.10;93.00;;;;;;4981727;28;20483;-37
2022/10/26 12:15:47;;;;;;;7.15;2.22;;;20.80;92.90;;;;;;4988859;28;20649;-38
2022/10/26 12:18:38;;;;;;;7.22;1.88;;;20.40;95.30;;;;;;4987350;28;20046;-37
2022/10/26 12:21:07;;;;;;;4.85;1.90;;;20.10;95.70;;;;;;4983711;28;20034;-37
2022/10/26 12:23:51;;;;;;;4.35;1.83;;;20.00;96.40;;;;;;4988903;28;20096;-39
2022/10/26 12:26:23;;;;;;;4.57;1.80;;;20.00;96.50;;;;;;4980388;28;20049;-37
2022/10/26 12:29:28;;;;;;;5.25;1.80;;;20.20;95.90;;;;;;4985026;28;20136;-37
2022/10/26 12:31:54;;;;;;;4.30;1.73;;;20.50;94.50;;;;;;4980843;28;20042;-38
2022/10/26 12:34:29;;;;;;;4.50;1.90;;;20.10;95.70;;;;;;4987331;28;20051;-38
2022/10/26 12:36:54;;;;;;;4.88;2.22;;;19.70;96.40;;;;;;4982701;28;20039;-38
2022/10/26 12:39:37;;;;;;;6.00;2.60;;;19.40;97.60;;;;;;4990397;28;20041;-37
2022/10/26 12:42:09;;;;;;;5.20;2.20;;;19.20;97.50;;;;;;4985764;28;20046;-38
2022/10/26 12:44:42;;;;;;;5.25;2.25;;;18.90;98.70;;;;;;4989327;28;20045;-38
2022/10/26 12:47:09;;;;;;;5.28;2.20;;;18.70;99.60;;;;;;4982663;28;20473;-37
2022/10/26 12:50:05;;;;;;;6.05;2.22;;;18.60;99.90;;;;;;4977253;28;20062;-38
2022/10/26 12:53:00;;;;;;;6.88;2.30;;;18.50;99.90;;;;;;4985132;28;20129;-37
2022/10/26 12:55:44;;;;;;;7.97;2.70;;;18.50;99.90;;;;;;4984068;28;20150;-38
2022/10/26 12:58:34;;;;;;;6.45;2.17;;;18.50;99.90;;;;;;4982463;28;20043;-37
2022/10/26 13:00:59;;;;;;;4.18;2.05;;;18.50;99.90;;;;;;4981877;28;20871;-38
2022/10/26 13:03:43;;;;;;;6.13;2.17;;;18.80;99.90;;;;;;4983880;28;20034;-40
2022/10/26 13:06:37;;;;;;;6.13;2.20;;;19.70;99.60;;;;;;4982535;28;20052;-37
2022/10/26 13:09:26;;;;;;;5.72;2.13;;;20.50;96.80;;;;;;4983916;28;20070;-38